Time;durP1;ratioP1;P1;durP2;ratioP2;P2;SDS_P1;SDS_P2;PMS_P1;PMS_P2;Temp;Humidity;BMP_temperature;BMP_pressure;BME280_temperature;BME280_humidity;BME280_pressure;Samples;Min_cycle;Max_cycle;Signal;HPM_P1;HPM_P2
2022/11/01 00:01:09;;;;;;;13.97;9.80;;;;;;;11.71;100.00;96736.75;5086871;28;20229;-57
2022/11/01 00:03:36;;;;;;;12.23;9.70;;;;;;;11.69;100.00;96736.06;5081599;28;20252;-57
2022/11/01 00:06:05;;;;;;;13.30;10.73;;;;;;;11.74;100.00;96737.31;5081345;28;20247;-61
2022/11/01 00:08:32;;;;;;;15.50;11.10;;;;;;;11.75;100.00;96722.25;5081313;28;20651;-57
2022/11/01 00:11:05;;;;;;;13.97;10.43;;;;;;;11.74;100.00;96721.41;5080543;28;20284;-59
2022/11/01 00:13:32;;;;;;;13.50;9.93;;;;;;;11.77;100.00;96721.09;5080690;28;20247;-58
2022/11/01 00:15:58;;;;;;;17.13;11.27;;;;;;;11.78;100.00;96722.78;5081118;28;20230;-57
2022/11/01 00:18:26;;;;;;;14.33;10.77;;;;;;;11.81;100.00;96722.47;5081278;28;20601;-58
2022/11/01 00:20:52;;;;;;;14.37;10.60;;;;;;;11.81;100.00;96724.28;5080431;28;20340;-58
2022/11/01 00:23:20;;;;;;;14.77;10.57;;;;;;;11.81;100.00;96730.44;5080482;28;20319;-59
2022/11/01 00:25:47;;;;;;;11.50;9.70;;;;;;;11.82;100.00;96728.63;5080721;28;20232;-58
2022/11/01 00:28:14;;;;;;;12.93;10.13;;;;;;;11.83;100.00;96736.41;5081227;28;20333;-58
2022/11/01 00:30:41;;;;;;;13.10;10.63;;;;;;;11.86;100.00;96732.63;5080957;28;20238;-58
2022/11/01 00:33:08;;;;;;;14.73;10.77;;;;;;;11.85;100.00;96723.84;5079748;28;20221;-58
2022/11/01 00:35:36;;;;;;;14.53;10.97;;;;;;;11.88;100.00;96723.56;5079715;28;20234;-59
2022/11/01 00:38:03;;;;;;;14.53;11.40;;;;;;;11.91;100.00;96722.41;5080857;28;20541;-60
2022/11/01 00:40:31;;;;;;;13.23;11.43;;;;;;;11.93;100.00;96720.47;5080612;28;20234;-59
2022/11/01 00:42:58;;;;;;;11.87;10.33;;;;;;;11.96;100.00;96734.25;5080727;28;20324;-60
2022/11/01 00:45:24;;;;;;;17.63;11.27;;;;;;;11.95;100.00;96732.56;5080427;28;20300;-58
2022/11/01 00:47:51;;;;;;;14.63;12.33;;;;;;;11.96;100.00;96736.91;5080809;28;20202;-59
2022/11/01 00:50:17;;;;;;;16.10;12.67;;;;;;;11.94;100.00;96736.19;5080709;28;20291;-59
2022/11/01 00:52:44;;;;;;;17.80;12.70;;;;;;;11.90;100.00;96745.41;5081775;28;20290;-59
2022/11/01 00:55:11;;;;;;;14.13;11.83;;;;;;;11.89;100.00;96735.81;5081570;28;20734;-58
2022/11/01 00:57:39;;;;;;;14.27;11.50;;;;;;;11.92;100.00;96746.13;5082237;28;20236;-59
2022/11/01 01:00:06;;;;;;;13.60;12.07;;;;;;;11.85;100.00;96734.44;5083244;28;20288;-58
2022/11/01 01:02:33;;;;;;;16.07;12.00;;;;;;;11.80;100.00;96735.88;5084960;28;20266;-59
2022/11/01 01:05:00;;;;;;;14.43;11.93;;;;;;;11.80;100.00;96744.66;5084556;28;20298;-60
2022/11/01 01:07:26;;;;;;;14.97;12.37;;;;;;;11.75;100.00;96751.38;5085647;28;20305;-59
2022/11/01 01:09:53;;;;;;;14.70;11.40;;;;;;;11.72;100.00;96755.19;5085489;28;20606;-60
2022/11/01 01:12:19;;;;;;;14.30;11.50;;;;;;;11.69;100.00;96741.34;5084482;28;20293;-59
2022/11/01 01:14:47;;;;;;;15.20;12.50;;;;;;;11.69;100.00;96750.09;5084317;28;20283;-60
2022/11/01 01:17:14;;;;;;;15.20;11.93;;;;;;;11.72;100.00;96754.34;5084091;28;20225;-59
2022/11/01 01:19:41;;;;;;;15.40;12.27;;;;;;;11.71;100.00;96757.97;5084115;28;20294;-59
2022/11/01 01:22:08;;;;;;;16.13;11.60;;;;;;;11.65;100.00;96748.75;5083632;28;20223;-59
2022/11/01 01:24:35;;;;;;;12.63;11.33;;;;;;;11.67;100.00;96741.50;5083922;28;20325;-60
2022/11/01 01:27:02;;;;;;;16.47;12.13;;;;;;;11.60;100.00;96748.34;5084253;28;20804;-59
2022/11/01 01:29:29;;;;;;;17.10;12.20;;;;;;;11.63;100.00;96740.13;5084260;28;20203;-59
2022/11/01 01:31:57;;;;;;;17.30;11.90;;;;;;;11.63;100.00;96733.97;5083896;28;20281;-58
2022/11/01 01:34:23;;;;;;;15.00;11.77;;;;;;;11.56;100.00;96739.03;5088749;28;20219;-59
2022/11/01 01:36:50;;;;;;;14.63;11.87;;;;;;;11.58;100.00;96744.19;5091561;28;20245;-60
2022/11/01 01:39:17;;;;;;;13.37;11.03;;;;;;;11.56;100.00;96749.63;5091476;28;20209;-60
2022/11/01 01:41:55;;;;;;;15.73;12.43;;;;;;;11.57;100.00;96743.34;5086902;28;20250;-60
2022/11/01 01:45:10;;;;;;;13.83;12.30;;;;;;;11.62;100.00;96745.56;5083056;28;20289;-60
2022/11/01 01:47:40;;;;;;;12.77;11.40;;;;;;;11.60;100.00;96740.41;5083218;28;20682;-60
2022/11/01 01:50:09;;;;;;;17.13;12.17;;;;;;;11.55;100.00;96737.34;5083495;28;20796;-60
2022/11/01 01:52:39;;;;;;;13.30;11.33;;;;;;;11.56;100.00;96739.03;5083551;28;21346;-59
2022/11/01 01:55:07;;;;;;;15.77;11.97;;;;;;;11.53;100.00;96736.69;5083135;28;20229;-59
2022/11/01 01:57:34;;;;;;;12.20;10.73;;;;;;;11.57;100.00;96734.56;5082908;28;20281;-59
2022/11/01 02:00:01;;;;;;;16.03;11.20;;;;;;;11.54;100.00;96738.34;5083385;28;20233;-58
2022/11/01 02:02:29;;;;;;;15.90;11.73;;;;;;;11.56;100.00;96728.44;5083555;28;20215;-59
2022/11/01 02:04:59;;;;;;;12.87;11.13;;;;;;;11.56;100.00;96730.25;5083564;28;20237;-59
2022/11/01 02:07:25;;;;;;;13.87;10.57;;;;;;;11.56;100.00;96741.69;5083670;28;20294;-60
2022/11/01 02:09:53;;;;;;;12.23;10.23;;;;;;;11.59;100.00;96744.03;5082479;28;20285;-59
2022/11/01 02:12:19;;;;;;;13.17;10.37;;;;;;;11.57;100.00;96748.66;5082084;28;20198;-59
2022/11/01 02:14:46;;;;;;;12.37;9.80;;;;;;;11.57;100.00;96747.81;5082555;28;20642;-58
2022/11/01 02:17:17;;;;;;;12.60;9.40;;;;;;;11.59;100.00;96751.97;5083114;28;20280;-59
2022/11/01 02:20:12;;;;;;;12.37;8.30;;;;;;;11.62;100.00;96748.22;5083144;28;20545;-60
2022/11/01 02:23:07;;;;;;;12.43;9.57;;;;;;;11.66;100.00;96750.41;5080715;28;20664;-59
2022/11/01 02:25:49;;;;;;;15.77;9.10;;;;;;;11.68;100.00;96764.34;5082538;28;20697;-59
2022/11/01 02:28:32;;;;;;;10.43;9.23;;;;;;;11.71;100.00;96774.69;5083154;28;20285;-59
2022/11/01 02:31:04;;;;;;;11.57;9.30;;;;;;;11.72;100.00;96780.81;5083552;28;20198;-59
2022/11/01 02:33:35;;;;;;;16.73;9.70;;;;;;;11.74;100.00;96769.09;5083018;28;20202;-58
2022/11/01 02:36:05;;;;;;;14.40;9.80;;;;;;;11.74;100.00;96781.50;5082462;28;20290;-59
2022/11/01 02:38:35;;;;;;;15.17;10.03;;;;;;;11.79;100.00;96787.22;5082264;28;20297;-59
2022/11/01 02:41:08;;;;;;;11.90;10.23;;;;;;;11.81;100.00;96786.06;5082302;28;20620;-59
2022/11/01 02:43:40;;;;;;;11.93;10.67;;;;;;;11.83;100.00;96794.69;5081902;28;20289;-59
2022/11/01 02:48:50;;;;;;;13.47;10.57;;;;;;;11.88;100.00;96786.31;5081225;28;20630;-59
2022/11/01 02:51:18;;;;;;;12.70;11.33;;;;;;;11.84;100.00;96785.78;5081527;28;20230;-59
2022/11/01 02:53:45;;;;;;;12.13;10.67;;;;;;;11.87;100.00;96785.47;5081837;28;20580;-59
2022/11/01 02:56:12;;;;;;;16.03;10.73;;;;;;;11.88;100.00;96787.16;5082212;28;20347;-58
2022/11/01 02:58:39;;;;;;;14.30;11.60;;;;;;;11.91;100.00;96794.81;5082185;28;20268;-59
2022/11/01 03:01:13;;;;;;;15.57;10.80;;;;;;;11.91;100.00;96800.09;5081720;28;20609;-59
2022/11/01 03:03:41;;;;;;;13.77;11.97;;;;;;;11.93;100.00;96792.84;5082357;28;20225;-59
2022/11/01 03:06:12;;;;;;;12.87;11.13;;;;;;;11.97;100.00;96804.00;5081862;28;20238;-59
2022/11/01 03:08:42;;;;;;;13.33;11.13;;;;;;;12.02;100.00;96814.13;5083260;28;20234;-59
2022/11/01 03:11:11;;;;;;;12.43;11.07;;;;;;;11.99;100.00;96815.28;5081746;28;20293;-59
2022/11/01 03:13:49;;;;;;;14.53;9.93;;;;;;;12.01;100.00;96825.75;5082255;28;20289;-59
2022/11/01 03:16:21;;;;;;;12.30;10.17;;;;;;;12.01;100.00;96833.69;5081672;28;20293;-59
2022/11/01 03:19:03;;;;;;;13.23;10.63;;;;;;;12.01;100.00;96836.34;5085817;28;20277;-59
2022/11/01 03:21:36;;;;;;;16.30;11.10;;;;;;;12.02;100.00;96838.81;5097165;28;20712;-58
2022/11/01 03:24:07;;;;;;;15.83;11.17;;;;;;;12.04;100.00;96836.88;5082400;28;20289;-59
2022/11/01 03:26:35;;;;;;;15.50;10.80;;;;;;;12.04;100.00;96834.22;5081757;28;20201;-59
2022/11/01 03:29:04;;;;;;;16.03;10.83;;;;;;;12.07;100.00;96841.03;5081440;28;20297;-59
2022/11/01 03:31:32;;;;;;;12.03;10.30;;;;;;;12.10;100.00;96838.09;5081369;28;20627;-59
2022/11/01 03:34:01;;;;;;;12.20;9.87;;;;;;;12.16;100.00;96838.34;5081825;28;20289;-59
2022/11/01 03:36:34;;;;;;;16.13;10.77;;;;;;;12.29;100.00;96838.00;5081695;28;20538;-58
2022/11/01 03:39:04;;;;;;;16.27;11.40;;;;;;;12.46;100.00;96830.06;5081091;28;20281;-59
2022/11/01 03:41:34;;;;;;;15.87;11.83;;;;;;;12.56;100.00;96840.59;5081507;28;20315;-60
2022/11/01 03:44:02;;;;;;;14.50;11.53;;;;;;;12.63;100.00;96836.38;5081697;28;20206;-59
2022/11/01 03:46:28;;;;;;;15.37;12.33;;;;;;;12.70;100.00;96840.06;5081461;28;20236;-59
2022/11/01 03:48:55;;;;;;;17.37;11.93;;;;;;;12.75;100.00;96840.44;5081372;28;20289;-59
2022/11/01 03:51:22;;;;;;;15.80;11.77;;;;;;;12.77;100.00;96838.50;5081117;28;20252;-59
2022/11/01 03:53:50;;;;;;;13.13;11.73;;;;;;;12.79;100.00;96844.47;5081369;28;20198;-60
2022/11/01 03:56:16;;;;;;;18.53;12.70;;;;;;;12.78;100.00;96845.47;5081589;28;20237;-59
2022/11/01 03:58:44;;;;;;;15.33;11.80;;;;;;;12.81;100.00;96850.47;5080802;28;20251;-59
2022/11/01 04:01:12;;;;;;;18.37;12.27;;;;;;;12.81;100.00;96850.47;5081027;28;20233;-59
2022/11/01 04:03:39;;;;;;;15.70;12.50;;;;;;;12.82;100.00;96846.81;5081226;28;20297;-59
2022/11/01 04:06:07;;;;;;;15.63;11.83;;;;;;;12.78;100.00;96858.75;5081199;28;20237;-58
2022/11/01 04:08:35;;;;;;;14.03;11.73;;;;;;;12.72;100.00;96856.66;5080948;28;20285;-59
2022/11/01 04:11:04;;;;;;;13.83;10.93;;;;;;;12.73;100.00;96863.66;5081099;28;20199;-59
2022/11/01 04:13:30;;;;;;;17.43;11.33;;;;;;;12.71;100.00;96855.03;5080700;28;20233;-58
2022/11/01 04:21:26;;;;;;;12.37;10.53;;;;;;;12.68;100.00;96868.56;5080497;28;20221;-59
2022/11/01 04:23:53;;;;;;;10.57;8.87;;;;;;;12.76;100.00;96886.41;5080986;28;20197;-59
2022/11/01 04:26:22;;;;;;;9.73;7.70;;;;;;;13.14;100.00;96882.66;5081132;28;20280;-59
2022/11/01 04:28:56;;;;;;;11.30;7.17;;;;;;;13.37;100.00;96899.75;5081239;28;20245;-59
2022/11/01 04:31:24;;;;;;;13.47;7.00;;;;;;;13.61;100.00;96897.28;5080463;28;20209;-59
2022/11/01 04:33:50;;;;;;;9.73;6.57;;;;;;;13.86;100.00;96898.28;5081035;28;20225;-59
2022/11/01 04:36:17;;;;;;;9.40;6.97;;;;;;;13.93;100.00;96908.13;5084750;28;20634;-59
2022/11/01 04:38:44;;;;;;;11.67;7.10;;;;;;;13.99;100.00;96900.53;5084759;28;20386;-59
2022/11/01 04:41:10;;;;;;;9.33;6.40;;;;;;;14.14;100.00;96905.09;5084405;28;20207;-59
2022/11/01 04:43:38;;;;;;;12.00;6.93;;;;;;;14.35;100.00;96910.03;5085436;28;20285;-59
2022/11/01 04:46:05;;;;;;;12.30;7.27;;;;;;;14.40;100.00;96921.03;5084883;28;20297;-59
2022/11/01 04:48:32;;;;;;;9.70;6.07;;;;;;;14.49;100.00;96922.72;5084188;28;20725;-59
2022/11/01 04:51:01;;;;;;;10.17;6.80;;;;;;;14.60;100.00;96913.63;5084213;28;20891;-59
2022/11/01 04:53:27;;;;;;;9.07;6.53;;;;;;;14.65;100.00;96903.34;5084641;28;20213;-59
2022/11/01 04:55:54;;;;;;;15.17;6.50;;;;;;;14.64;100.00;96918.47;5084534;28;20261;-59
2022/11/01 04:58:21;;;;;;;11.63;6.97;;;;;;;14.67;100.00;96918.13;5084438;28;20301;-59
2022/11/01 05:00:49;;;;;;;7.82;6.50;;;;;;;14.70;100.00;96911.69;5084472;28;20281;-60
2022/11/01 05:03:15;;;;;;;7.60;6.40;;;;;;;14.71;100.00;96914.16;5084672;28;20313;-60
2022/11/01 05:05:42;;;;;;;8.10;5.80;;;;;;;14.78;100.00;96909.03;5084495;28;20202;-60
2022/11/01 05:08:10;;;;;;;14.13;6.73;;;;;;;14.85;100.00;96923.34;5083612;28;20285;-58
2022/11/01 05:10:39;;;;;;;8.18;5.95;;;;;;;14.77;100.00;96918.03;5084366;28;20217;-58
2022/11/01 05:13:06;;;;;;;9.77;5.43;;;;;;;14.81;100.00;96922.84;5084603;28;20285;-59
2022/11/01 05:15:32;;;;;;;8.25;5.75;;;;;;;14.83;100.00;96938.66;5084165;28;20289;-59
2022/11/01 05:18:01;;;;;;;10.13;5.85;;;;;;;14.80;100.00;96926.53;5084832;28;20658;-58
2022/11/01 05:20:29;;;;;;;7.72;5.15;;;;;;;14.90;100.00;96929.03;5085562;28;20216;-59
2022/11/01 05:22:58;;;;;;;9.23;5.55;;;;;;;14.91;100.00;96930.72;5105901;28;20309;-60
2022/11/01 05:25:25;;;;;;;6.32;4.47;;;;;;;14.90;100.00;96943.19;5102747;28;20196;-59
2022/11/01 05:27:51;;;;;;;7.00;4.30;;;;;;;14.89;100.00;96941.50;5084298;28;20226;-61
2022/11/01 05:30:18;;;;;;;9.37;5.13;;;;;;;14.89;100.00;96954.81;5106277;28;20563;-60
2022/11/01 05:32:47;;;;;;;10.97;4.80;;;;;;;14.91;100.00;96968.00;5108161;28;20179;-59
2022/11/01 05:35:15;;;;;;;7.25;4.30;;;;;;;14.84;100.00;96975.75;5095054;28;20212;-60
2022/11/01 05:37:42;;;;;;;4.60;4.20;;;;;;;14.95;100.00;96971.97;5087337;28;20297;-59
2022/11/01 05:40:09;;;;;;;5.97;4.27;;;;;;;14.86;100.00;96981.78;5092053;28;20241;-60
2022/11/01 05:42:38;;;;;;;8.18;4.47;;;;;;;14.86;100.00;96986.28;5087536;28;20291;-60
2022/11/01 05:45:08;;;;;;;7.30;4.22;;;;;;;14.84;100.00;96982.94;5083607;28;20293;-59
2022/11/01 05:47:35;;;;;;;5.80;4.25;;;;;;;14.79;100.00;96987.91;5083574;28;20686;-59
2022/11/01 05:50:02;;;;;;;8.15;4.38;;;;;;;14.70;100.00;96979.03;5083231;28;20894;-58
2022/11/01 05:52:30;;;;;;;6.97;4.10;;;;;;;14.66;100.00;96980.38;5083187;28;20236;-60
2022/11/01 05:54:56;;;;;;;6.18;4.35;;;;;;;14.62;100.00;96979.03;5083058;28;20832;-60
2022/11/01 05:57:23;;;;;;;5.80;4.70;;;;;;;14.68;100.00;96983.69;5083795;28;20291;-60
2022/11/01 05:59:50;;;;;;;5.80;4.00;;;;;;;14.61;100.00;96982.69;5083520;28;20226;-60
2022/11/01 06:02:17;;;;;;;5.03;3.85;;;;;;;14.70;100.00;96978.22;5083664;28;20270;-59
2022/11/01 06:04:43;;;;;;;6.50;3.90;;;;;;;14.63;100.00;96986.00;5083608;28;20646;-60
2022/11/01 06:07:10;;;;;;;5.18;3.80;;;;;;;14.68;100.00;96983.69;5084308;28;20282;-60
2022/11/01 06:09:38;;;;;;;5.25;3.70;;;;;;;14.63;100.00;96990.50;5083881;28;20369;-60
2022/11/01 06:12:06;;;;;;;4.23;3.70;;;;;;;14.60;100.00;96988.16;5083988;28;20229;-60
2022/11/01 06:14:32;;;;;;;5.80;3.83;;;;;;;14.57;100.00;96986.66;5083581;28;20206;-59
2022/11/01 06:16:59;;;;;;;6.03;4.05;;;;;;;14.58;100.00;96995.47;5084166;28;20234;-60
2022/11/01 06:19:25;;;;;;;5.68;3.25;;;;;;;14.62;100.00;96992.34;5083518;28;20293;-59
2022/11/01 06:21:52;;;;;;;5.57;3.30;;;;;;;14.64;100.00;97003.66;5083343;28;20590;-59
2022/11/01 06:24:19;;;;;;;4.32;3.53;;;;;;;14.63;100.00;97007.28;5082836;28;20289;-60
2022/11/01 06:26:47;;;;;;;4.75;3.30;;;;;;;14.65;100.00;97007.97;5083573;28;20245;-59
2022/11/01 06:29:13;;;;;;;4.63;3.20;;;;;;;14.73;100.00;97002.72;5083437;28;20285;-60
2022/11/01 06:31:40;;;;;;;7.13;3.80;;;;;;;14.72;100.00;97005.50;5083315;28;20566;-59
2022/11/01 06:34:07;;;;;;;6.18;3.60;;;;;;;14.78;100.00;97003.03;5082903;28;20245;-59
2022/11/01 06:36:33;;;;;;;3.97;3.20;;;;;;;14.82;100.00;97009.72;5083060;28;20221;-59
2022/11/01 06:39:00;;;;;;;5.50;3.27;;;;;;;14.80;100.00;97014.38;5083422;28;20206;-60
2022/11/01 06:41:27;;;;;;;6.67;3.27;;;;;;;14.79;100.00;97011.88;5083328;28;20211;-60
2022/11/01 06:43:56;;;;;;;4.78;3.10;;;;;;;14.75;100.00;97022.00;5082477;28;20498;-59
2022/11/01 06:46:23;;;;;;;6.53;3.50;;;;;;;14.65;100.00;97026.63;5082306;28;20685;-59
2022/11/01 06:48:49;;;;;;;4.07;3.10;;;;;;;14.60;100.00;97044.88;5083146;28;20301;-60
2022/11/01 06:51:16;;;;;;;4.50;3.33;;;;;;;14.51;100.00;97037.84;5082855;28;20309;-59
2022/11/01 06:53:42;;;;;;;6.03;3.47;;;;;;;14.47;100.00;97049.81;5083685;28;20254;-59
2022/11/01 06:56:09;;;;;;;5.55;2.92;;;;;;;14.39;100.00;97052.41;5084165;28;20574;-58
2022/11/01 06:58:36;;;;;;;5.15;3.10;;;;;;;14.33;100.00;97055.66;5083627;28;20294;-59
2022/11/01 07:01:04;;;;;;;5.80;2.92;;;;;;;14.24;100.00;97053.94;5084407;28;21278;-60
2022/11/01 07:03:31;;;;;;;5.37;3.47;;;;;;;14.25;100.00;97063.59;5084082;28;20321;-60
2022/11/01 07:05:59;;;;;;;4.85;3.20;;;;;;;14.26;100.00;97071.41;5082983;28;20301;-59
2022/11/01 07:08:26;;;;;;;3.77;3.00;;;;;;;14.28;100.00;97071.25;5083543;28;20589;-60
2022/11/01 07:10:52;;;;;;;4.88;3.13;;;;;;;14.32;100.00;97067.28;5083536;28;20285;-59
2022/11/01 07:13:19;;;;;;;5.63;3.07;;;;;;;14.35;100.00;97059.03;5082741;28;20294;-59
2022/11/01 07:15:45;;;;;;;4.28;2.50;;;;;;;14.36;100.00;97053.56;5081665;28;20749;-59
2022/11/01 07:18:13;;;;;;;5.83;2.47;;;;;;;14.40;100.00;97059.41;5081762;28;20245;-59
2022/11/01 07:20:43;;;;;;;3.03;2.60;;;;;;;14.46;100.00;97064.09;5081360;28;20226;-59
2022/11/01 07:23:12;;;;;;;6.22;2.50;;;;;;;14.46;100.00;97064.09;5081856;28;20226;-60
2022/11/01 07:25:39;;;;;;;4.05;2.53;;;;;;;14.50;100.00;97065.44;5081383;28;20233;-59
2022/11/01 07:28:05;;;;;;;5.38;2.65;;;;;;;14.56;100.00;97072.00;5081664;28;20719;-59
2022/11/01 07:30:32;;;;;;;5.60;2.70;;;;;;;14.54;100.00;97071.28;5080848;28;20539;-59
2022/11/01 07:33:00;;;;;;;3.97;2.43;;;;;;;14.52;100.00;97074.13;5082128;28;20608;-59
2022/11/01 07:35:28;;;;;;;3.55;2.50;;;;;;;14.54;100.00;97079.28;5081558;28;20289;-59
2022/11/01 07:37:57;;;;;;;2.97;2.50;;;;;;;14.51;100.00;97075.13;5081619;28;20425;-59
2022/11/01 07:40:26;;;;;;;4.25;2.63;;;;;;;14.53;100.00;97081.09;5081105;28;20833;-58
2022/11/01 07:42:53;;;;;;;4.40;2.55;;;;;;;14.53;100.00;97073.13;5081982;28;20222;-59
2022/11/01 07:45:20;;;;;;;2.42;2.03;;;;;;;14.54;100.00;97072.13;5081163;28;20276;-59
2022/11/01 07:47:47;;;;;;;3.13;2.72;;;;;;;14.57;100.00;97065.66;5081800;28;20307;-59
2022/11/01 07:50:13;;;;;;;3.10;2.00;;;;;;;14.61;100.00;97070.50;5081792;28;20212;-59
2022/11/01 07:52:41;;;;;;;5.88;2.65;;;;;;;14.62;100.00;97069.53;5081389;28;20191;-60
2022/11/01 07:55:09;;;;;;;4.72;2.60;;;;;;;14.65;100.00;97073.69;5081647;28;20207;-59
2022/11/01 07:57:37;;;;;;;5.60;4.38;;;;;;;14.66;100.00;97062.91;5082805;28;20287;-59
2022/11/01 08:00:04;;;;;;;6.25;2.63;;;;;;;14.76;100.00;97066.28;5083751;28;20678;-60
2022/11/01 08:02:31;;;;;;;4.50;2.40;;;;;;;14.77;100.00;97059.94;5085688;28;20302;-61
2022/11/01 08:04:58;;;;;;;4.13;2.63;;;;;;;14.80;100.00;97062.31;5090501;28;20243;-59
2022/11/01 08:07:24;;;;;;;9.48;5.53;;;;;;;14.84;100.00;97057.50;5089990;28;20279;-59
2022/11/01 08:09:52;;;;;;;4.72;3.17;;;;;;;14.86;100.00;97056.34;5084010;28;20237;-59
2022/11/01 08:12:19;;;;;;;3.28;2.45;;;;;;;14.90;100.00;97064.84;5083168;28;20255;-59
2022/11/01 08:14:45;;;;;;;4.00;2.35;;;;;;;14.94;100.00;97056.38;5082605;28;20232;-59
2022/11/01 08:17:12;;;;;;;3.50;2.30;;;;;;;14.97;100.00;97068.53;5082925;28;20288;-61
2022/11/01 08:19:39;;;;;;;3.67;2.60;;;;;;;15.00;100.00;97067.38;5083066;28;20719;-62
2022/11/01 08:22:05;;;;;;;2.47;2.22;;;;;;;15.04;100.00;97066.06;5081287;28;20230;-60
2022/11/01 08:24:32;;;;;;;2.95;2.75;;;;;;;15.09;100.00;97063.75;5081886;28;20270;-59
2022/11/01 08:27:02;;;;;;;4.13;2.63;;;;;;;15.12;100.00;97074.94;5082677;28;20290;-60
2022/11/01 08:29:28;;;;;;;4.90;2.63;;;;;;;15.18;100.00;97071.63;5080720;28;20670;-59
2022/11/01 08:31:55;;;;;;;4.63;2.40;;;;;;;15.23;100.00;97079.13;5080800;28;20286;-60
2022/11/01 08:34:22;;;;;;;5.20;2.53;;;;;;;15.25;100.00;97074.47;5080791;28;20237;-59
2022/11/01 08:36:48;;;;;;;4.40;2.65;;;;;;;15.29;100.00;97075.81;5080918;28;20293;-59
2022/11/01 08:39:15;;;;;;;4.18;2.58;;;;;;;15.32;100.00;97083.47;5080476;28;20237;-59
2022/11/01 08:41:41;;;;;;;2.42;2.22;;;;;;;15.36;100.00;97075.00;5080891;28;20629;-59
2022/11/01 08:44:10;;;;;;;4.60;2.53;;;;;;;15.44;100.00;97084.88;5080602;28;20351;-59
2022/11/01 08:46:36;;;;;;;3.72;2.80;;;;;;;15.44;100.00;97088.34;5080887;28;20244;-59
2022/11/01 08:49:03;;;;;;;8.45;2.72;;;;;;;15.47;100.00;97089.88;5097046;28;20206;-59
2022/11/01 08:51:31;;;;;;;5.05;2.70;;;;;;;15.47;100.00;97097.88;5094822;28;20229;-60
2022/11/01 08:53:58;;;;;;;2.92;2.33;;;;;;;15.49;100.00;97090.56;5097982;28;20262;-60
2022/11/01 08:56:26;;;;;;;3.40;2.30;;;;;;;15.58;100.00;97089.59;5084982;28;20256;-59
2022/11/01 08:58:53;;;;;;;5.13;3.00;;;;;;;15.54;100.00;97088.25;5079903;28;20205;-59
2022/11/01 09:01:22;;;;;;;5.07;3.10;;;;;;;15.52;100.00;97090.22;5080541;28;20193;-59
2022/11/01 09:03:49;;;;;;;5.90;2.80;;;;;;;15.52;100.00;97089.44;5080690;28;20287;-59
2022/11/01 09:06:16;;;;;;;7.75;2.80;;;;;;;15.51;100.00;97083.25;5080497;28;20336;-59
2022/11/01 09:08:42;;;;;;;3.97;2.67;;;;;;;15.53;100.00;97091.06;5092135;28;20755;-59
2022/11/01 09:11:09;;;;;;;3.22;2.83;;;;;;;15.52;100.00;97090.22;5101203;28;20199;-59
2022/11/01 09:13:36;;;;;;;4.60;2.60;;;;;;;15.53;100.00;97094.56;5089157;28;20222;-59
2022/11/01 09:16:05;;;;;;;5.82;2.90;;;;;;;15.57;100.00;97097.75;5088743;28;20248;-60
2022/11/01 09:18:33;;;;;;;4.88;2.70;;;;;;;15.59;100.00;97095.78;5100718;28;20270;-59
2022/11/01 09:21:00;;;;;;;3.78;2.50;;;;;;;15.59;100.00;97099.25;5105379;28;20199;-60
2022/11/01 09:23:27;;;;;;;7.57;3.08;;;;;;;15.58;100.00;97102.94;5099104;28;20214;-59
2022/11/01 09:25:53;;;;;;;3.88;2.55;;;;;;;15.60;100.00;97106.25;5101176;28;20191;-60
2022/11/01 09:28:20;;;;;;;11.23;9.82;;;;;;;15.65;100.00;97101.28;5086741;28;20590;-59
2022/11/01 09:30:47;;;;;;;8.35;4.82;;;;;;;15.69;100.00;97097.28;5083555;28;20229;-58
2022/11/01 09:33:13;;;;;;;10.15;6.07;;;;;;;15.76;100.00;97092.97;5083699;28;20194;-58
2022/11/01 09:35:42;;;;;;;7.57;6.65;;;;;;;15.80;100.00;97094.28;5083223;28;20210;-59
2022/11/01 09:38:08;;;;;;;4.55;2.88;;;;;;;15.86;100.00;97096.31;5083908;28;20255;-58
2022/11/01 09:40:42;;;;;;;6.82;3.08;;;;;;;15.90;100.00;97097.66;5083219;28;20293;-59
2022/11/01 09:43:10;;;;;;;6.07;3.15;;;;;;;15.93;100.00;97102.66;5083596;28;20206;-60
2022/11/01 09:45:37;;;;;;;5.78;2.90;;;;;;;15.96;100.00;97100.66;5083875;28;20227;-59
2022/11/01 09:48:04;;;;;;;6.75;3.10;;;;;;;15.94;100.00;97101.66;5084384;28;20244;-59
2022/11/01 09:50:33;;;;;;;5.30;2.83;;;;;;;15.98;100.00;97112.00;5083574;28;20267;-59
2022/11/01 09:53:03;;;;;;;4.30;2.78;;;;;;;16.01;99.91;97106.34;5083632;28;20205;-59
2022/11/01 09:55:40;;;;;;;6.55;2.58;;;;;;;16.05;99.23;97108.50;5083995;28;20297;-58
2022/11/01 09:58:14;;;;;;;6.53;3.20;;;;;;;16.11;99.85;97115.00;5083862;28;20198;-59
2022/11/01 10:00:47;;;;;;;6.95;3.30;;;;;;;16.13;97.41;97107.66;5083513;28;20251;-60
2022/11/01 10:03:32;;;;;;;6.50;2.70;;;;;;;16.17;98.26;97111.66;5083129;28;20293;-59
2022/11/01 10:06:07;;;;;;;5.28;2.60;;;;;;;16.22;94.85;97114.69;5083526;28;20292;-59
2022/11/01 10:08:51;;;;;;;7.45;3.28;;;;;;;16.28;96.53;97122.84;5083852;28;20205;-60
2022/11/01 10:11:52;;;;;;;4.22;2.40;;;;;;;16.37;94.19;97113.00;5082683;28;20285;-59
2022/11/01 10:14:31;;;;;;;6.72;3.17;;;;;;;16.40;94.39;97118.84;5068277;28;20644;-60
2022/11/01 10:17:06;;;;;;;5.97;2.65;;;;;;;16.51;94.67;97122.19;5082970;28;20220;-59
2022/11/01 10:19:34;;;;;;;4.68;2.85;;;;;;;16.58;94.08;97124.03;5082923;28;20233;-58
2022/11/01 10:22:06;;;;;;;8.27;2.83;;;;;;;16.71;93.00;97126.19;5083045;28;20259;-58
2022/11/01 10:24:36;;;;;;;4.18;2.83;;;;;;;16.83;91.49;97128.34;5083054;28;20592;-58
2022/11/01 10:27:07;;;;;;;7.10;3.03;;;;;;;16.88;90.24;97122.50;5082759;28;20244;-58
2022/11/01 10:29:37;;;;;;;8.68;2.78;;;;;;;16.94;92.08;97127.16;5082758;28;20229;-58
2022/11/01 10:32:15;;;;;;;5.80;2.97;;;;;;;17.05;91.45;97133.97;5081868;28;20288;-58
2022/11/01 10:34:42;;;;;;;4.70;2.95;;;;;;;17.13;91.83;97136.63;5083313;28;20280;-58
2022/11/01 10:37:14;;;;;;;4.00;2.63;;;;;;;17.15;90.88;97137.28;5082816;28;20290;-58
2022/11/01 10:39:48;;;;;;;4.55;2.50;;;;;;;17.20;91.49;97137.59;5082891;28;20197;-58
2022/11/01 10:42:16;;;;;;;5.57;2.30;;;;;;;17.21;90.61;97139.28;5082327;28;20583;-57
2022/11/01 10:44:47;;;;;;;7.70;3.03;;;;;;;17.22;89.58;97143.59;5082625;28;20257;-58
2022/11/01 10:47:17;;;;;;;5.47;2.53;;;;;;;17.13;90.04;97136.63;5081998;28;20289;-58
2022/11/01 10:49:47;;;;;;;3.85;2.90;;;;;;;17.11;91.18;97128.75;5081724;28;20198;-58
2022/11/01 10:52:16;;;;;;;7.53;2.67;;;;;;;17.07;90.64;97132.81;5082345;28;20254;-58
2022/11/01 10:54:46;;;;;;;6.97;2.95;;;;;;;17.09;90.83;97129.94;5082323;28;20234;-57
2022/11/01 10:57:20;;;;;;;4.95;2.85;;;;;;;17.11;91.36;97128.75;5082097;28;20710;-58
2022/11/01 10:59:47;;;;;;;5.10;2.78;;;;;;;16.91;90.78;97125.66;5082195;28;20273;-56
2022/11/01 11:02:24;;;;;;;4.75;2.50;;;;;;;16.98;91.42;97114.28;5082171;28;20293;-57
2022/11/01 11:04:50;;;;;;;4.50;2.63;;;;;;;17.02;92.51;97115.59;5081959;28;20726;-57
2022/11/01 11:07:18;;;;;;;4.97;2.45;;;;;;;17.03;92.30;97119.94;5082278;28;20209;-59
2022/11/01 11:09:48;;;;;;;4.88;2.42;;;;;;;16.98;92.36;97116.94;5081649;28;20207;-58
2022/11/01 11:12:17;;;;;;;4.75;2.88;;;;;;;16.89;94.33;97108.97;5082561;28;20207;-58
2022/11/01 11:14:46;;;;;;;5.18;2.90;;;;;;;16.86;91.95;97119.97;5083044;28;20198;-58
2022/11/01 11:17:19;;;;;;;5.78;2.75;;;;;;;16.79;93.69;97112.84;5064351;28;20213;-58
2022/11/01 11:19:46;;;;;;;6.10;2.88;;;;;;;16.76;93.32;97122.00;5081778;28;20317;-57
2022/11/01 11:22:13;;;;;;;2.83;2.28;;;;;;;16.74;93.02;97115.16;5081223;28;20234;-58
2022/11/01 11:24:43;;;;;;;4.75;2.13;;;;;;;16.72;91.33;97112.66;5081155;28;21414;-57
2022/11/01 11:27:19;;;;;;;6.70;2.63;;;;;;;16.63;92.71;97113.69;5083599;28;20218;-59
2022/11/01 11:29:48;;;;;;;4.20;2.30;;;;;;;16.61;93.59;97120.22;5081323;28;20582;-58
2022/11/01 11:32:18;;;;;;;8.00;2.72;;;;;;;16.67;93.62;97112.34;5081084;28;20202;-55
2022/11/01 11:34:52;;;;;;;6.28;2.47;;;;;;;16.66;94.17;97113.34;5080972;28;20282;-58